createdAt,value
2018-11-23T00:02:26.089Z,29.13
2018-11-23T00:05:00.104Z,26.13
2018-11-23T00:07:33.717Z,25.43
2018-11-23T00:10:05.347Z,26.33
2018-11-23T00:12:36.724Z,27.40
2018-11-23T00:15:12.879Z,27.10
2018-11-23T00:17:45.464Z,27.43
2018-11-23T00:20:18.992Z,27.20
2018-11-23T00:22:50.329Z,27.37
2018-11-23T00:25:24.268Z,25.73
2018-11-23T00:27:57.940Z,24.60
2018-11-23T00:30:30.518Z,25.87
2018-11-23T00:33:03.220Z,25.60
2018-11-23T00:35:34.522Z,26.57
2018-11-23T00:38:07.969Z,26.60
2018-11-23T00:40:39.231Z,25.73
2018-11-23T00:43:11.687Z,27.03
2018-11-23T00:45:44.509Z,25.20
2018-11-23T00:48:17.017Z,25.73
2018-11-23T00:50:49.878Z,27.30
2018-11-23T00:53:21.196Z,25.23
2018-11-23T00:55:54.409Z,25.60
2018-11-23T00:58:29.351Z,26.03
2018-11-23T01:01:00.871Z,24.87
2018-11-23T01:03:32.183Z,26.70
2018-11-23T01:06:04.914Z,26.33
2018-11-23T01:08:38.587Z,26.60
2018-11-23T01:11:11.554Z,26.70
2018-11-23T01:13:46.502Z,24.60
2018-11-23T01:16:20.694Z,23.57
2018-11-23T01:18:51.947Z,22.90
2018-11-23T01:21:25.075Z,23.33
2018-11-23T01:23:56.559Z,23.07
2018-11-23T01:26:35.426Z,24.67
2018-11-23T01:29:07.606Z,23.23
2018-11-23T01:31:40.376Z,22.67
2018-11-23T01:34:13.219Z,24.97
2018-11-23T01:36:44.559Z,24.73
2018-11-23T01:39:15.864Z,24.43
2018-11-23T01:41:48.939Z,21.17
2018-11-23T01:44:20.200Z,24.00
2018-11-23T01:46:51.511Z,24.53
2018-11-23T01:49:25.103Z,23.83
2018-11-23T01:51:57.818Z,25.37
2018-11-23T01:54:29.051Z,25.57
2018-11-23T01:57:02.303Z,23.43
2018-11-23T01:59:33.535Z,24.93
2018-11-23T02:02:07.905Z,25.47
2018-11-23T02:04:41.109Z,24.60
2018-11-23T02:07:12.922Z,23.63
2018-11-23T02:09:45.985Z,24.23
2018-11-23T02:12:19.604Z,23.80
2018-11-23T02:14:55.220Z,21.93
2018-11-23T02:17:26.413Z,22.07
2018-11-23T02:19:59.132Z,24.17
2018-11-23T02:22:33.663Z,23.63
2018-11-23T02:25:04.941Z,25.20
2018-11-23T02:27:39.386Z,24.23
2018-11-23T02:30:14.312Z,24.47
2018-11-23T02:32:47.548Z,24.43
2018-11-23T02:35:21.336Z,23.17
2018-11-23T02:37:55.252Z,23.47
2018-11-23T02:40:26.885Z,23.53
2018-11-23T02:43:00.061Z,22.80
2018-11-23T02:45:31.399Z,23.03
2018-11-23T02:48:05.074Z,23.83
2018-11-23T02:50:36.729Z,22.27
2018-11-23T02:53:09.975Z,21.57
2018-11-23T02:55:44.129Z,22.60
2018-11-23T02:58:16.475Z,22.47
2018-11-23T03:00:49.285Z,22.37
2018-11-23T03:03:22.134Z,22.97
2018-11-23T03:05:54.637Z,22.60
2018-11-23T03:08:28.251Z,21.83
2018-11-23T03:11:01.947Z,20.70
2018-11-23T03:13:34.607Z,21.50
2018-11-23T03:16:07.456Z,21.10
2018-11-23T03:18:40.629Z,21.00
2018-11-23T03:21:13.964Z,20.83
2018-11-23T03:23:46.343Z,21.27
2018-11-23T03:26:20.012Z,20.97
2018-11-23T03:28:51.432Z,21.03
2018-11-23T03:31:26.269Z,20.47
2018-11-23T03:33:59.635Z,21.47
2018-11-23T03:36:31.026Z,20.23
2018-11-23T03:39:03.672Z,21.00
2018-11-23T03:41:37.404Z,22.40
2018-11-23T03:44:09.725Z,22.87
2018-11-23T03:46:44.056Z,22.67
2018-11-23T03:49:17.025Z,22.07
2018-11-23T03:51:51.076Z,21.57
2018-11-23T03:54:23.740Z,22.03
2018-11-23T03:56:56.479Z,22.57
2018-11-23T03:59:29.464Z,22.47
2018-11-23T04:02:02.500Z,21.77
2018-11-23T04:04:33.882Z,21.93
2018-11-23T04:07:05.151Z,21.80
2018-11-23T04:09:39.702Z,21.13
2018-11-23T04:12:14.349Z,20.73
2018-11-23T04:14:45.582Z,22.53
2018-11-23T04:17:17.014Z,21.07
2018-11-23T04:19:49.758Z,21.73
2018-11-23T04:22:21.243Z,22.17
2018-11-23T04:24:54.500Z,20.50
2018-11-23T04:27:27.740Z,21.43
2018-11-23T04:30:03.015Z,21.77
2018-11-23T04:32:36.718Z,22.30
2018-11-23T04:35:12.804Z,22.67
2018-11-23T04:37:46.093Z,23.87
2018-11-23T04:40:18.682Z,21.13
2018-11-23T04:42:52.419Z,22.03
2018-11-23T04:45:24.383Z,21.43
2018-11-23T04:47:56.889Z,22.73
2018-11-23T04:50:28.806Z,22.53
2018-11-23T04:53:01.327Z,23.70
2018-11-23T04:55:32.696Z,22.63
2018-11-23T04:58:06.034Z,23.13
2018-11-23T05:00:40.100Z,21.97
2018-11-23T05:03:13.131Z,22.20
2018-11-23T05:05:46.992Z,21.17
2018-11-23T05:08:19.751Z,21.77
2018-11-23T05:10:53.080Z,22.67
2018-11-23T05:13:25.749Z,21.17
2018-11-23T05:15:58.700Z,20.53
2018-11-23T05:18:30.070Z,21.33
2018-11-23T05:21:01.479Z,21.37
2018-11-23T05:23:34.929Z,22.33
2018-11-23T05:26:08.380Z,22.70
2018-11-23T05:28:42.757Z,22.77
2018-11-23T05:31:15.607Z,20.57
2018-11-23T05:33:47.085Z,21.40
2018-11-23T05:36:20.027Z,22.33
2018-11-23T05:38:52.987Z,21.57
2018-11-23T05:41:24.530Z,22.20
2018-11-23T05:43:56.374Z,20.80
2018-11-23T05:46:29.523Z,21.20
2018-11-23T05:49:02.614Z,21.17
2018-11-23T05:51:35.301Z,20.80
2018-11-23T05:54:07.627Z,20.07
2018-11-23T05:56:39.076Z,20.77
2018-11-23T05:59:10.539Z,20.40
2018-11-23T06:01:43.428Z,23.13
2018-11-23T06:04:14.802Z,22.67
2018-11-23T06:06:46.357Z,21.20
2018-11-23T06:09:20.574Z,21.50
2018-11-23T06:11:52.094Z,20.77
2018-11-23T06:14:25.249Z,20.93
2018-11-23T06:16:56.798Z,22.17
2018-11-23T06:19:29.659Z,22.57
2018-11-23T06:22:02.811Z,21.17
2018-11-23T06:24:36.031Z,23.07
2018-11-23T06:27:08.004Z,22.93
2018-11-23T06:29:41.637Z,21.90
2018-11-23T06:32:49.703Z,21.50
2018-11-23T06:35:23.338Z,22.20
2018-11-23T06:37:56.206Z,23.07
2018-11-23T06:40:27.888Z,22.00
2018-11-23T06:43:02.507Z,24.30
2018-11-23T06:45:37.495Z,24.20
2018-11-23T06:48:11.422Z,24.23
2018-11-23T06:50:44.792Z,25.43
2018-11-23T06:53:17.544Z,24.20
2018-11-23T06:55:50.646Z,25.03
2018-11-23T06:58:21.943Z,25.53
2018-11-23T07:00:56.298Z,23.20
2018-11-23T07:03:30.032Z,23.43
2018-11-23T07:06:03.416Z,23.40
2018-11-23T07:08:37.352Z,23.30
2018-11-23T07:11:10.990Z,23.50
2018-11-23T07:13:46.127Z,25.13
2018-11-23T07:16:17.585Z,24.00
2018-11-23T07:18:50.961Z,26.17
2018-11-23T07:21:24.165Z,27.07
2018-11-23T07:23:58.019Z,27.20
2018-11-23T07:26:29.901Z,24.80
2018-11-23T07:29:03.503Z,26.57
2018-11-23T07:31:34.896Z,23.80
2018-11-23T07:34:06.448Z,24.87
2018-11-23T07:36:40.302Z,25.10
2018-11-23T07:39:48.745Z,23.77
2018-11-23T07:42:24.735Z,24.83
2018-11-23T07:44:57.600Z,24.37
2018-11-23T07:47:31.351Z,27.53
2018-11-23T07:50:02.655Z,24.27
2018-11-23T07:52:36.739Z,24.87
2018-11-23T07:55:09.375Z,23.87
2018-11-23T07:57:41.921Z,24.20
2018-11-23T08:00:21.399Z,23.80
2018-11-23T08:02:54.559Z,24.27
2018-11-23T08:05:27.971Z,22.77
2018-11-23T08:07:59.315Z,24.17
2018-11-23T08:10:30.028Z,22.70
2018-11-23T08:13:02.786Z,20.70
2018-11-23T08:15:35.045Z,21.43
2018-11-23T08:18:08.073Z,21.40
2018-11-23T08:20:39.553Z,20.13
2018-11-23T08:23:11.005Z,19.87
2018-11-23T08:25:44.351Z,20.57
2018-11-23T08:28:17.465Z,22.30
2018-11-23T08:30:49.260Z,18.83
2018-11-23T08:33:23.259Z,19.93
2018-11-23T08:35:57.725Z,21.50
2018-11-23T08:38:29.836Z,22.13
2018-11-23T08:41:01.221Z,20.33
2018-11-23T08:43:34.131Z,20.73
2018-11-23T08:46:07.582Z,21.17
2018-11-23T08:48:40.553Z,22.83
2018-11-23T08:51:13.843Z,21.07
2018-11-23T08:53:48.044Z,21.77
2018-11-23T08:56:21.796Z,19.13
2018-11-23T08:58:53.495Z,19.73
2018-11-23T09:01:26.228Z,17.93
2018-11-23T09:03:59.713Z,20.70
2018-11-23T09:06:31.121Z,22.90
2018-11-23T09:09:04.194Z,18.07
2018-11-23T09:11:37.438Z,18.53
2018-11-23T09:14:11.523Z,20.03
2018-11-23T09:16:43.930Z,18.67
2018-11-23T09:19:18.069Z,19.03
2018-11-23T09:21:51.123Z,20.13
2018-11-23T09:24:23.092Z,17.27
2018-11-23T09:26:56.459Z,17.63
2018-11-23T09:29:28.258Z,18.30
2018-11-23T09:32:00.919Z,16.87
2018-11-23T09:34:33.638Z,17.13
2018-11-23T09:37:06.712Z,16.43
2018-11-23T09:39:37.933Z,17.00
2018-11-23T09:42:09.198Z,18.80
2018-11-23T09:44:40.394Z,17.20
2018-11-23T09:47:11.561Z,15.80
2018-11-23T09:49:42.782Z,14.83
2018-11-23T09:52:14.051Z,15.57
2018-11-23T09:54:45.382Z,15.87
2018-11-23T09:57:16.788Z,15.40
2018-11-23T09:59:48.137Z,16.73
2018-11-23T10:02:19.401Z,15.60
2018-11-23T10:04:50.689Z,16.60
2018-11-23T10:07:21.930Z,15.13
2018-11-23T10:09:53.512Z,15.73
2018-11-23T10:12:24.878Z,16.50
2018-11-23T10:14:56.141Z,15.47
2018-11-23T10:17:27.488Z,17.40
2018-11-23T10:19:58.715Z,16.50
2018-11-23T10:22:30.007Z,18.67
2018-11-23T10:25:01.326Z,18.93
2018-11-23T10:27:32.463Z,19.13
2018-11-23T10:30:03.765Z,19.53
2018-11-23T10:32:34.942Z,19.27
2018-11-23T10:35:06.531Z,21.00
2018-11-23T10:37:37.908Z,21.77
2018-11-23T10:40:15.279Z,21.57
2018-11-23T10:42:46.715Z,23.53
2018-11-23T10:45:19.918Z,20.93
2018-11-23T10:47:51.872Z,20.93
2018-11-23T10:50:27.253Z,23.27
2018-11-23T10:53:00.850Z,20.00
2018-11-23T10:55:33.454Z,21.00
2018-11-23T10:58:04.828Z,22.63
2018-11-23T11:01:09.755Z,22.60
2018-11-23T11:03:57.657Z,21.53
2018-11-23T11:06:45.930Z,20.93
2018-11-23T11:09:17.281Z,22.47
2018-11-23T11:11:48.552Z,19.97
2018-11-23T11:14:19.834Z,21.37
2018-11-23T11:16:51.171Z,21.13
2018-11-23T11:19:22.458Z,22.10
2018-11-23T11:21:53.816Z,19.47
2018-11-23T11:24:25.177Z,20.17
2018-11-23T11:26:56.628Z,20.33
2018-11-23T11:29:28.794Z,17.43
2018-11-23T11:32:00.067Z,20.57
2018-11-23T11:34:31.406Z,21.87
2018-11-23T11:37:02.895Z,27.40
2018-11-23T11:39:34.056Z,21.10
2018-11-23T11:42:05.428Z,20.37
2018-11-23T11:44:36.635Z,23.90
2018-11-23T11:47:08.263Z,23.77
2018-11-23T11:49:39.625Z,23.17
2018-11-23T11:52:10.935Z,21.90
2018-11-23T11:54:42.302Z,23.67
2018-11-23T11:57:13.628Z,23.17
2018-11-23T11:59:44.935Z,23.17
2018-11-23T12:02:16.199Z,24.73
2018-11-23T12:04:47.389Z,24.50
2018-11-23T12:07:18.646Z,24.20
2018-11-23T12:09:49.857Z,26.23
2018-11-23T12:12:21.095Z,24.70
2018-11-23T12:14:52.347Z,26.27
2018-11-23T12:17:23.913Z,25.57
2018-11-23T12:19:55.239Z,25.60
2018-11-23T12:22:26.525Z,27.40
2018-11-23T12:24:57.827Z,27.20
2018-11-23T12:27:29.503Z,26.47
2018-11-23T12:30:00.258Z,26.87
2018-11-23T12:32:31.525Z,25.77
2018-11-23T12:35:02.820Z,25.73
2018-11-23T12:37:34.108Z,26.70
2018-11-23T12:40:05.335Z,28.63
2018-11-23T12:42:36.702Z,25.97
2018-11-23T12:45:09.998Z,27.07
2018-11-23T12:47:41.242Z,24.83
2018-11-23T12:50:20.198Z,26.73
2018-11-23T12:52:51.421Z,23.83
2018-11-23T12:55:25.710Z,27.03
2018-11-23T12:57:56.976Z,23.80
2018-11-23T13:00:29.127Z,24.23
2018-11-23T13:03:04.721Z,26.33
2018-11-23T13:05:36.628Z,25.70
2018-11-23T13:08:08.418Z,25.23
2018-11-23T13:10:39.644Z,26.23
2018-11-23T13:13:12.188Z,25.90
2018-11-23T13:15:43.444Z,24.53
2018-11-23T13:18:14.882Z,25.60
2018-11-23T13:20:46.232Z,27.90
2018-11-23T13:23:20.508Z,26.77
2018-11-23T13:25:51.838Z,25.53
2018-11-23T13:28:23.020Z,25.53
2018-11-23T13:30:54.257Z,28.63
2018-11-23T13:33:25.407Z,25.33
2018-11-23T13:35:56.678Z,25.40
2018-11-23T13:38:27.862Z,26.77
2018-11-23T13:40:59.391Z,24.43
2018-11-23T13:43:31.703Z,24.87
2018-11-23T13:46:03.002Z,25.63
2018-11-23T13:48:34.289Z,30.20
2018-11-23T13:51:06.007Z,29.93
2018-11-23T13:53:37.180Z,30.83
2018-11-23T13:56:09.438Z,28.63
2018-11-23T13:58:40.737Z,29.10
2018-11-23T14:01:11.952Z,26.30
2018-11-23T14:03:43.229Z,34.03
2018-11-23T14:06:14.336Z,55.27
2018-11-23T14:08:45.551Z,46.90
2018-11-23T14:11:16.814Z,38.87
2018-11-23T14:13:48.067Z,33.20
2018-11-23T14:16:19.257Z,32.70
2018-11-23T14:18:50.619Z,40.50
2018-11-23T14:21:21.917Z,31.97
2018-11-23T14:23:53.313Z,38.80
2018-11-23T14:26:24.803Z,36.17
2018-11-23T14:28:56.097Z,31.53
2018-11-23T14:31:27.387Z,33.00
2018-11-23T14:33:58.688Z,35.67
2018-11-23T14:36:29.889Z,33.63
2018-11-23T14:39:01.114Z,36.53
2018-11-23T14:41:32.386Z,32.00
2018-11-23T14:44:06.904Z,31.47
2018-11-23T14:46:35.058Z,31.23
2018-11-23T14:49:08.448Z,30.57
2018-11-23T14:51:39.745Z,29.73
2018-11-23T14:54:11.035Z,32.57
2018-11-23T14:56:42.328Z,32.27
2018-11-23T14:59:13.536Z,32.40
2018-11-23T15:01:44.853Z,32.23
2018-11-23T15:04:16.153Z,31.80
2018-11-23T15:06:50.432Z,30.90
2018-11-23T15:09:21.812Z,34.03
2018-11-23T15:11:53.064Z,31.70
2018-11-23T15:14:24.257Z,51.30
2018-11-23T15:16:55.555Z,39.93
2018-11-23T15:19:26.827Z,35.63
2018-11-23T15:21:58.161Z,42.70
2018-11-23T15:24:29.504Z,44.50
2018-11-23T15:27:00.771Z,43.20
2018-11-23T15:29:31.973Z,88.83
2018-11-23T15:32:03.317Z,44.80
2018-11-23T15:34:34.521Z,36.47
2018-11-23T15:37:05.764Z,33.33
2018-11-23T15:39:37.032Z,39.93
2018-11-23T15:42:08.287Z,28.90
2018-11-23T15:44:39.517Z,38.13
2018-11-23T15:47:10.889Z,33.20
2018-11-23T15:49:42.061Z,52.30
2018-11-23T15:52:13.431Z,51.63
2018-11-23T15:54:44.657Z,51.50
2018-11-23T15:57:15.911Z,46.60
2018-11-23T15:59:47.123Z,47.23
2018-11-23T16:02:18.374Z,34.67
2018-11-23T16:04:49.676Z,30.23
2018-11-23T16:07:21.030Z,28.27
2018-11-23T16:09:52.221Z,25.87
2018-11-23T16:12:23.541Z,27.60
2018-11-23T16:14:54.820Z,26.93
2018-11-23T16:17:25.946Z,26.70
2018-11-23T16:19:57.264Z,25.73
2018-11-23T16:22:28.624Z,29.00
2018-11-23T16:24:59.943Z,25.57
2018-11-23T16:27:31.242Z,26.33
2018-11-23T16:30:02.555Z,27.60
2018-11-23T16:32:33.852Z,25.20
2018-11-23T16:35:05.143Z,24.60
2018-11-23T16:37:36.343Z,29.53
2018-11-23T16:40:09.291Z,26.20
2018-11-23T16:42:40.932Z,28.90
2018-11-23T16:45:15.360Z,28.40
2018-11-23T16:47:47.131Z,22.67
2018-11-23T16:50:18.475Z,26.67
2018-11-23T16:52:50.386Z,26.63
2018-11-23T16:55:22.899Z,25.83
2018-11-23T16:57:55.561Z,24.43
2018-11-23T17:00:37.283Z,23.83
2018-11-23T17:03:10.542Z,26.23
2018-11-23T17:05:46.404Z,23.13
2018-11-23T17:08:17.635Z,23.10
2018-11-23T17:10:48.942Z,23.27
2018-11-23T17:13:20.078Z,24.23
2018-11-23T17:15:51.341Z,21.13
2018-11-23T17:18:22.607Z,18.80
2018-11-23T17:20:53.883Z,22.03
2018-11-23T17:23:25.553Z,18.27
2018-11-23T17:25:56.783Z,21.10
2018-11-23T17:28:28.043Z,21.33
2018-11-23T17:30:59.308Z,28.37
2018-11-23T17:33:30.622Z,18.07
2018-11-23T17:36:02.236Z,19.40
2018-11-23T17:38:37.567Z,17.87
2018-11-23T17:41:04.858Z,27.27
2018-11-23T17:43:36.143Z,31.80
2018-11-23T17:46:07.320Z,31.43
2018-11-23T17:48:38.992Z,48.20
2018-11-23T17:51:10.297Z,85.00
2018-11-23T17:53:41.707Z,80.87
2018-11-23T17:56:12.986Z,68.37
2018-11-23T17:58:45.123Z,83.73
2018-11-23T18:01:19.359Z,107.53
2018-11-23T18:03:50.601Z,88.67
2018-11-23T18:09:12.210Z,34.00
2018-11-23T18:11:43.395Z,125.33
2018-11-23T18:14:14.662Z,103.10
2018-11-23T18:16:45.865Z,86.87
2018-11-23T18:19:17.175Z,47.10
2018-11-23T18:21:48.502Z,35.37
2018-11-23T18:24:19.783Z,57.47
2018-11-23T18:26:51.104Z,21.40
2018-11-23T18:29:22.320Z,17.77
2018-11-23T18:31:53.615Z,85.17
2018-11-23T18:34:24.959Z,130.33
2018-11-23T18:36:56.263Z,81.60
2018-11-23T18:39:27.584Z,94.67
2018-11-23T18:41:58.842Z,36.13
2018-11-23T18:44:30.109Z,44.67
2018-11-23T18:47:01.302Z,14.80
2018-11-23T18:49:32.581Z,52.83
2018-11-23T18:52:03.937Z,69.63
2018-11-23T18:54:35.076Z,80.47
2018-11-23T18:57:06.727Z,98.20
2018-11-23T18:59:37.968Z,115.93
2018-11-23T19:02:09.213Z,28.47
2018-11-23T19:07:56.272Z,26.10
2018-11-23T19:10:26.968Z,24.40
2018-11-23T19:12:57.659Z,16.93
2018-11-23T19:15:28.271Z,17.17
2018-11-23T19:17:58.746Z,14.27
2018-11-23T19:20:29.413Z,12.27
2018-11-23T19:23:00.042Z,15.27
2018-11-23T19:25:30.651Z,15.50
2018-11-23T19:28:01.183Z,18.63
2018-11-23T19:30:32.114Z,18.33
2018-11-23T19:33:02.731Z,27.17
2018-11-23T19:35:33.304Z,21.33
2018-11-23T19:38:03.875Z,13.20
2018-11-23T19:40:34.356Z,16.20
2018-11-23T19:43:04.943Z,19.00
2018-11-23T19:45:35.776Z,14.03
2018-11-23T19:48:06.464Z,21.10
2018-11-23T19:50:37.036Z,23.40
2018-11-23T19:53:07.656Z,19.57
2018-11-23T19:55:38.183Z,16.17
2018-11-23T19:58:08.779Z,16.57
2018-11-23T20:00:39.318Z,17.53
2018-11-23T20:03:09.942Z,17.30
2018-11-23T20:05:42.764Z,18.03
2018-11-23T20:08:13.393Z,18.77
2018-11-23T20:10:44.051Z,18.60
2018-11-23T20:13:14.624Z,16.20
2018-11-23T20:15:45.882Z,19.40
2018-11-23T20:18:16.456Z,17.70
2018-11-23T20:20:47.034Z,17.17
2018-11-23T20:23:17.603Z,28.60
2018-11-23T20:25:48.203Z,18.53
2018-11-23T20:28:18.724Z,19.87
2018-11-23T20:30:49.348Z,18.33
2018-11-23T20:33:19.975Z,17.27
2018-11-23T20:35:50.992Z,17.30
2018-11-23T20:38:21.359Z,17.97
2018-11-23T20:40:51.917Z,14.67
2018-11-23T20:43:22.500Z,19.10
2018-11-23T20:45:53.306Z,19.50
2018-11-23T20:48:24.795Z,16.13
2018-11-23T20:50:55.434Z,15.97
2018-11-23T20:53:25.936Z,15.67
2018-11-23T20:55:56.513Z,15.33
2018-11-23T20:58:27.080Z,14.83
2018-11-23T21:00:57.731Z,17.93
2018-11-23T21:03:29.338Z,20.27
2018-11-23T21:05:59.982Z,13.83
2018-11-23T21:08:30.555Z,16.13
2018-11-23T21:11:01.082Z,16.30
2018-11-23T21:13:31.657Z,16.87
2018-11-23T21:16:02.116Z,15.13
2018-11-23T21:18:32.596Z,16.13
2018-11-23T21:21:03.040Z,17.70
2018-11-23T21:23:33.604Z,16.23
2018-11-23T21:26:04.574Z,17.00
2018-11-23T21:28:35.178Z,16.10
2018-11-23T21:31:05.744Z,16.20
2018-11-23T21:33:36.284Z,17.17
2018-11-23T21:36:06.953Z,16.67
2018-11-23T21:38:37.551Z,16.87
2018-11-23T21:41:08.197Z,16.00
2018-11-23T21:43:38.808Z,16.37
2018-11-23T21:46:09.644Z,16.43
2018-11-23T21:48:40.197Z,16.00
2018-11-23T21:51:10.726Z,18.57
2018-11-23T21:53:41.387Z,18.07
2018-11-23T21:56:11.937Z,16.20
2018-11-23T21:58:42.798Z,20.90
2018-11-23T22:01:13.363Z,17.23
2018-11-23T22:03:43.940Z,16.47
2018-11-23T22:06:15.558Z,17.77
2018-11-23T22:08:46.275Z,18.60
2018-11-23T22:11:16.843Z,19.27
2018-11-23T22:13:47.503Z,18.67
2018-11-23T22:16:17.989Z,19.37
2018-11-23T22:18:48.547Z,17.57
2018-11-23T22:21:19.064Z,17.90
2018-11-23T22:23:49.711Z,18.87
2018-11-23T22:26:20.572Z,33.50
2018-11-23T22:28:51.093Z,25.40
2018-11-23T22:31:21.603Z,25.23
2018-11-23T22:33:52.190Z,22.87
2018-11-23T22:36:22.714Z,21.63
2018-11-23T22:38:53.244Z,20.20
2018-11-23T22:41:23.712Z,22.63
2018-11-23T22:43:54.229Z,23.20
2018-11-23T22:46:25.100Z,24.27
2018-11-23T22:48:56.023Z,27.87
2018-11-23T22:51:26.587Z,29.17
2018-11-23T22:53:57.155Z,24.47
2018-11-23T22:56:27.726Z,21.13
2018-11-23T22:58:58.300Z,23.47
2018-11-23T23:01:29.006Z,21.53
2018-11-23T23:03:59.524Z,20.10
2018-11-23T23:06:30.268Z,21.43
2018-11-23T23:09:00.878Z,24.17
2018-11-23T23:11:31.468Z,22.60
2018-11-23T23:14:02.806Z,24.00
2018-11-23T23:16:33.934Z,26.73
2018-11-23T23:19:04.545Z,26.07
2018-11-23T23:21:35.187Z,27.10
2018-11-23T23:24:11.625Z,24.07
2018-11-23T23:26:36.592Z,20.03
2018-11-23T23:29:07.284Z,21.53
2018-11-23T23:31:37.878Z,21.87
2018-11-23T23:34:08.374Z,19.60
2018-11-23T23:36:38.935Z,20.20
2018-11-23T23:39:09.931Z,21.83
2018-11-23T23:41:41.080Z,23.97
2018-11-23T23:44:11.653Z,21.10
2018-11-23T23:46:44.267Z,26.40
2018-11-23T23:49:14.862Z,26.23
2018-11-23T23:51:45.439Z,32.67
2018-11-23T23:54:16.008Z,41.13
2018-11-23T23:56:46.624Z,32.67
2018-11-23T23:59:17.307Z,32.63
